Latest Weather Observations for Bairnsdale

IDV60801

Issued at 3:02 pm EDT Saturday 7 March 2015 (issued every 30 minutes, with the page automatically refreshed every 10 minutes)

About weather observations | Map of weather stations | Latest weather observations for VIC | Other Formats
Station Details ID: 085279 Name: BAIRNSDALE AIRPORT Lat: -37.88 Lon: 147.57 Height: 49.4 m
Data from the previous 72 hours. | See also: Recent months at Bairnsdale
Date/Time
EDT
Temp
°C
App
Temp
°C
Dew
Point
Rel
Hum
%
Delta-T
°C
Wind Press
QNH
hPa
Press
MSL
hPa
Rain
since 9 am
mm
Dir
 
Spd
km/h
Gust
km/h
Spd
kts
Gust
kts
07/02:30pm 22.7 18.8 12.0 50 6.1 WSW 24 32 13 17 1009.7 1009.6 0.0
07/02:00pm 21.6 17.4 11.0 51 5.9 SW 24 32 13 17 1009.6 1009.5 0.0
07/01:30pm 22.6 19.4 11.4 49 6.3 WSW 19 30 10 16 1009.9 1009.8 0.0
07/01:00pm 22.3 19.6 11.7 51 6.0 WSW 17 22 9 12 1010.1 1010.0 0.0
07/12:30pm 21.6 19.2 11.3 52 5.7 W 15 20 8 11 1010.1 1010.0 0.0
07/12:00pm 21.8 20.3 11.8 53 5.6 W 11 19 6 10 1010.4 1010.3 0.0
07/11:30am 20.8 18.8 11.4 55 5.2 W 13 19 7 10 1010.7 1010.6 0.0
07/11:00am 20.3 18.5 12.0 59 4.6 WSW 13 20 7 11 1010.7 1010.6 0.0
07/10:30am 19.2 17.3 11.7 62 4.1 WSW 13 19 7 10 1010.9 1010.8 0.0
07/10:00am 18.8 16.4 11.4 62 4.1 WSW 15 20 8 11 1011.0 1010.9 0.0
07/09:30am 18.6 17.4 11.7 64 3.8 WNW 9 13 5 7 1010.9 1010.8 0.0
07/09:00am 16.9 15.3 11.6 71 2.9 WNW 11 15 6 8 1011.1 1011.0 0.0
07/08:30am 16.1 15.0 11.9 76 2.3 NW 9 13 5 7 1011.2 1011.1 0.0
07/08:00am 15.0 14.1 12.5 85 1.4 WNW 9 13 5 7 1011.2 1011.1 0.0
07/07:30am 14.2 13.5 11.9 86 1.2 WNW 7 9 4 5 1010.9 1010.8 0.0
07/07:00am 13.8 12.5 11.1 84 1.4 WNW 9 11 5 6 1010.5 1010.4 0.0
07/06:30am 14.9 14.0 11.5 80 1.8 WNW 7 9 4 5 1010.2 1010.1 0.0
07/06:00am 15.0 13.5 12.0 82 1.6 W 11 17 6 9 1010.2 1010.1 0.0
07/05:30am 14.4 13.3 11.9 85 1.4 WNW 9 13 5 7 1010.1 1010.0 0.0
07/05:00am 13.9 12.6 11.2 84 1.4 WNW 9 11 5 6 1010.0 1009.9 0.0
07/04:30am 14.8 13.7 11.8 82 1.6 NW 9 11 5 6 1010.1 1010.0 0.0
07/04:00am 15.2 13.7 12.0 81 1.7 WNW 11 15 6 8 1010.4 1010.3 0.0
07/03:30am 15.2 13.4 12.1 82 1.7 WNW 13 15 7 8 1010.4 1010.3 0.0
07/03:00am 15.4 13.6 12.2 81 1.8 W 13 19 7 10 1010.8 1010.7 0.0
07/02:30am 15.2 14.1 11.8 80 1.8 W 9 13 5 7 1010.8 1010.7 0.0
07/02:00am 14.9 13.4 11.9 82 1.6 WNW 11 15 6 8 1011.2 1011.1 0.0
07/01:30am 14.7 13.4 11.3 80 1.8 NW 9 13 5 7 1011.5 1011.4 0.0
07/01:00am 14.9 12.9 11.5 80 1.8 WNW 13 17 7 9 1011.5 1011.4 0.0
07/12:30am 14.5 12.9 11.5 82 1.6 W 11 17 6 9 1011.6 1011.5 0.0
07/12:00am 14.0 11.6 11.3 84 1.4 WSW 15 20 8 11 1011.3 1011.2 0.0
 
Date/Time
EDT
Temp
°C
App
Temp
°C
Dew
Point
Rel
Hum
%
Delta-T
°C
Wind Press
QNH
hPa
Press
MSL
hPa
Rain
since 9 am
mm
Dir
 
Spd
km/h
Gust
km/h
Spd
kts
Gust
kts
06/11:30pm 14.1 12.4 11.3 83 1.5 WSW 11 17 6 9 1011.3 1011.2 0.0
06/11:00pm 14.7 11.3 11.3 80 1.8 WSW 20 26 11 14 1011.1 1011.0 0.0
06/10:30pm 15.1 11.8 11.5 79 1.9 WSW 20 35 11 19 1011.3 1011.2 0.0
06/10:00pm 15.7 11.4 11.9 78 2.1 WSW 26 35 14 19 1011.2 1011.1 0.0
06/09:30pm 15.8 10.7 11.8 77 2.2 SW 30 43 16 23 1010.8 1010.7 0.0
06/09:00pm 16.2 11.9 12.0 76 2.3 SW 26 39 14 21 1010.5 1010.4 0.0
06/08:30pm 16.6 11.4 11.7 73 2.7 SW 30 41 16 22 1009.8 1009.7 0.0
06/08:00pm 17.0 12.3 11.9 72 2.8 WSW 28 41 15 22 1009.7 1009.6 0.0
06/07:30pm 17.1 13.1 11.8 71 2.9 SW 24 33 13 18 1009.2 1009.1 0.0
06/07:00pm 17.9 12.8 11.9 68 3.3 WSW 30 41 16 22 1009.1 1009.0 0.0
06/06:34pm 19.6 14.9 12.1 62 4.2 WSW 28 46 15 25 1008.7 1008.5 0.0
06/06:30pm 19.8 14.3 12.6 63 4.1 WSW 33 46 18 25 1008.6 1008.4 0.0
06/06:12pm 19.4 14.3 11.9 62 4.2 WSW 30 48 16 26 1008.5 1008.3 0.0
06/06:00pm 19.9 12.8 12.2 61 4.3 WSW 41 54 22 29 1007.9 1007.8 0.0
06/05:30pm 21.0 14.2 11.9 56 5.1 WSW 39 59 21 32 1007.7 1007.6 0.0
06/05:00pm 21.8 14.7 10.9 50 6.0 WSW 39 61 21 33 1007.0 1006.9 0.0
06/04:31pm 21.7 14.8 11.7 53 5.6 W 39 59 21 32 1006.8 1006.7 0.0
06/04:30pm 21.8 15.0 11.8 53 5.6 W 39 54 21 29 1006.8 1006.7 0.0
06/04:00pm 21.2 13.6 11.8 55 5.3 WSW 43 69 23 37 1006.7 1006.6 0.0
06/03:30pm 21.6 14.3 11.6 53 5.6 WSW 41 59 22 32 1006.6 1006.5 0.0
06/03:00pm 21.9 14.8 13.3 58 5.0 W 43 61 23 33 1006.8 1006.7 0.0
06/02:30pm 19.5 13.4 14.1 71 3.1 WSW 39 59 21 32 1007.3 1007.2 0.0
06/02:03pm 21.2 13.8 12.6 58 4.9 WSW 43 61 23 33 1006.9 1006.8 0.0
06/02:00pm 20.9 13.3 12.3 58 4.9 WSW 44 61 24 33 1006.8 1006.7 0.0
06/01:30pm 20.9 12.7 11.8 56 5.1 WSW 46 70 25 38 1006.8 1006.7 0.0
06/01:00pm 21.1 11.8 12.0 56 5.1 W 52 74 28 40 1006.8 1006.7 0.0
06/12:30pm 20.5 12.7 11.7 57 4.9 WSW 44 65 24 35 1006.7 1006.6 0.0
06/12:00pm 20.1 11.8 11.3 57 4.9 W 46 65 25 35 1006.7 1006.6 0.0
06/11:30am 20.2 12.2 11.1 56 5.0 WSW 44 63 24 34 1006.6 1006.5 0.0
06/11:01am 19.9 13.8 10.6 55 5.1 W 33 56 18 30 1006.5 1006.4 0.0
06/11:00am 19.9 13.8 10.6 55 5.1 W 33 48 18 26 1006.4 1006.3 0.0
06/10:38am 19.3 14.0 9.8 54 5.1 WNW 28 46 15 25 1006.5 1006.4 0.0
06/10:30am 18.8 12.4 9.3 54 5.0 WNW 33 48 18 26 1006.5 1006.4 0.0
06/10:00am 18.3 12.7 8.8 54 5.0 WNW 28 44 15 24 1006.2 1006.1 0.0
06/09:30am 17.5 11.0 8.1 54 4.8 W 32 44 17 24 1006.1 1006.0 0.0
06/09:00am 17.3 11.0 7.6 53 4.9 W 30 44 16 24 1006.2 1006.1 0.0
06/08:30am 16.7 10.0 7.4 54 4.7 W 32 44 17 24 1006.0 1005.9 0.0
06/08:00am 16.2 9.7 6.6 53 4.7 WNW 30 39 16 21 1005.8 1005.7 0.0
06/07:30am 15.3 10.2 6.1 54 4.4 WNW 22 32 12 17 1006.1 1006.0 0.0
06/07:00am 14.7 10.1 5.5 54 4.4 WNW 19 26 10 14 1005.8 1005.7 0.0
06/06:30am 14.3 9.0 5.1 54 4.3 WNW 22 28 12 15 1005.6 1005.5 0.0
06/06:00am 14.3 8.6 4.9 53 4.4 WNW 24 32 13 17 1005.9 1005.8 0.0
06/05:30am 14.5 8.4 4.8 52 4.5 WNW 26 33 14 18 1006.2 1006.1 0.0
06/05:00am 14.2 8.0 4.5 52 4.5 WNW 26 37 14 20 1006.2 1006.1 0.0
06/04:30am 13.9 8.9 4.5 53 4.3 WNW 20 32 11 17 1006.6 1006.5 0.0
06/04:00am 13.8 7.6 4.1 52 4.5 WNW 26 33 14 18 1006.9 1006.8 0.0
06/03:30am 13.9 8.1 4.2 52 4.5 WNW 24 35 13 19 1007.5 1007.4 0.0
06/03:00am 13.9 8.4 4.2 52 4.5 WNW 22 35 12 19 1008.2 1008.1 0.0
06/02:30am 13.4 7.9 4.0 53 4.3 WNW 22 32 12 17 1008.5 1008.3 0.0
06/02:00am 13.0 8.0 4.4 56 3.9 WNW 20 26 11 14 1008.9 1008.7 0.0
06/01:30am 12.7 7.9 4.7 58 3.7 W 19 24 10 13 1009.7 1009.6 0.0
06/01:00am 12.5 7.9 5.4 62 3.3 WNW 19 24 10 13 1010.0 1009.9 0.0
06/12:30am 11.5 7.4 6.0 69 2.6 WNW 17 20 9 11 1010.2 1010.1 0.0
06/12:00am 11.8 7.9 5.4 65 3.0 WNW 15 20 8 11 1010.7 1010.6 0.0
 
Date/Time
EDT
Temp
°C
App
Temp
°C
Dew
Point
Rel
Hum
%
Delta-T
°C
Wind Press
QNH
hPa
Press
MSL
hPa
Rain
since 9 am
mm
Dir
 
Spd
km/h
Gust
km/h
Spd
kts
Gust
kts
05/11:30pm 12.4 9.0 5.8 64 3.1 WNW 13 17 7 9 1011.3 1011.2 0.0
05/11:00pm 13.0 8.4 5.7 61 3.4 W 19 26 10 14 1011.5 1011.4 0.0
05/10:30pm 13.5 8.6 5.2 57 3.9 W 20 30 11 16 1011.9 1011.8 0.0
05/10:00pm 13.9 8.3 5.3 56 4.0 WSW 24 33 13 18 1012.0 1011.9 0.0
05/09:30pm 14.1 8.5 5.2 55 4.2 WSW 24 32 13 17 1012.2 1012.1 0.0
05/09:00pm 14.5 8.4 4.8 52 4.5 WSW 26 35 14 19 1012.4 1012.3 0.0
05/08:46pm 14.6 8.1 4.9 52 4.5 WSW 28 46 15 25 1012.3 1012.2 0.0
05/08:30pm 14.6 8.9 5.1 53 4.5 WSW 24 37 13 20 1012.3 1012.2 0.0
05/08:00pm 14.6 10.2 4.6 51 4.7 WSW 17 22 9 12 1012.5 1012.4 0.0
05/07:30pm 15.2 9.6 3.7 46 5.3 WSW 22 32 12 17 1012.8 1012.7 0.0
05/07:00pm 15.9 9.0 2.7 41 6.0 W 28 43 15 23 1012.9 1012.8 0.0
05/06:30pm 16.6 10.1 4.6 45 5.7 WSW 28 41 15 22 1013.1 1013.0 0.0
05/06:00pm 17.7 9.6 3.2 38 6.7 WSW 35 48 19 26 1012.8 1012.7 0.0
05/05:41pm 17.6 10.0 3.1 38 6.7 WSW 32 50 17 27 1012.9 1012.8 0.0
05/05:30pm 17.4 9.3 3.3 39 6.5 WSW 35 48 19 26 1012.9 1012.8 0.0
05/05:06pm 18.7 11.1 2.9 35 7.3 WSW 32 50 17 27 1012.8 1012.7 0.0
05/05:00pm 19.3 11.8 3.5 35 7.5 WSW 32 48 17 26 1012.8 1012.7 0.0
05/04:30pm 19.3 10.9 1.8 31 8.0 W 35 54 19 29 1012.9 1012.8 0.0
05/04:10pm 19.7 11.5 2.6 32 8.0 WSW 35 54 19 29 1013.1 1013.0 0.0
05/04:00pm 18.5 10.2 2.4 34 7.4 WSW 35 52 19 28 1013.1 1013.0 0.0
05/03:30pm 18.9 10.6 1.9 32 7.7 WSW 35 54 19 29 1013.2 1013.1 0.0
05/03:26pm 19.5 11.5 1.9 31 8.1 WSW 33 54 18 29 1013.3 1013.2 0.0
05/03:00pm 18.1 9.5 2.8 36 7.1 WSW 37 50 20 27 1013.6 1013.5 0.0
05/02:49pm 18.0 9.6 3.5 38 6.8 WSW 37 54 20 29 1013.6 1013.5 0.0
05/02:30pm 18.7 9.9 3.7 37 7.1 W 39 54 21 29 1013.6 1013.5 0.0
05/02:14pm 19.0 9.9 4.0 37 7.1 WSW 41 59 22 32 1014.1 1014.0 0.0
05/02:00pm 17.2 7.9 2.8 38 6.6 WSW 41 57 22 31 1014.3 1014.2 0.0
05/01:30pm 17.1 7.9 3.4 40 6.3 W 41 61 22 33 1014.5 1014.4 0.0
05/01:00pm 16.9 7.3 3.2 40 6.3 WSW 43 69 23 37 1014.5 1014.4 0.0
05/12:33pm 17.7 10.2 4.6 42 6.2 WSW 33 56 18 30 1014.7 1014.6 0.0
05/12:30pm 18.2 11.2 7.0 48 5.6 WSW 33 50 18 27 1014.7 1014.6 0.0
05/12:08pm 17.3 8.0 3.2 39 6.5 WSW 41 67 22 36 1014.6 1014.5 0.0
05/12:00pm 16.9 8.1 3.6 41 6.2 WSW 39 54 21 29 1014.8 1014.7 0.0
05/11:30am 14.8 7.5 4.5 50 4.8 W 32 54 17 29 1014.5 1014.4 0.0
05/11:28am 14.8 7.9 4.8 51 4.7 WSW 30 48 16 26 1014.5 1014.4 0.0
05/11:00am 13.7 6.9 7.7 67 3.0 WSW 33 46 18 25 1014.5 1014.4 0.0
05/10:44am 13.0 6.0 5.9 62 3.4 WSW 32 50 17 27 1014.3 1014.2 0.0
05/10:30am 14.1 6.4 5.5 56 4.1 W 35 46 19 25 1013.9 1013.8 0.0
05/10:02am 14.8 5.6 5.3 53 4.5 W 43 65 23 35 1013.0 1012.9 0.0
05/10:00am 14.8 6.0 5.6 54 4.4 W 41 57 22 31 1013.0 1012.9 0.0
05/09:32am 14.0 6.4 5.6 57 4.0 W 35 54 19 29 1012.9 1012.8 0.0
05/09:30am 14.0 6.0 5.9 58 3.9 W 37 54 20 29 1013.0 1012.9 0.0
05/09:00am 13.8 5.7 5.2 56 4.0 W 37 56 20 30 1012.6 1012.5 1.4
05/08:41am 13.4 6.3 5.6 59 3.7 W 32 50 17 27 1012.4 1012.3 1.4
05/08:30am 13.1 6.1 5.8 61 3.4 W 32 46 17 25 1012.4 1012.3 1.4
05/08:12am 12.7 5.6 5.6 62 3.3 W 32 52 17 28 1012.3 1012.2 1.4
05/08:00am 12.5 5.9 6.1 65 3.0 W 30 43 16 23 1012.2 1012.1 1.4
05/07:30am 12.2 4.8 6.7 69 2.6 W 35 52 19 28 1011.6 1011.5 1.4
05/07:09am 11.9 5.2 7.2 73 2.3 WSW 32 50 17 27 1011.3 1011.2 1.4
05/07:00am 12.1 4.8 7.4 73 2.3 W 35 50 19 27 1011.0 1010.9 1.4
05/06:30am 12.3 5.3 8.6 78 1.8 WSW 35 56 19 30 1009.8 1009.7 1.4
05/06:00am 11.9 3.8 8.7 81 1.6 WSW 41 65 22 35 1009.0 1008.9 1.4
05/05:30am 11.8 2.4 10.0 89 0.9 WSW 50 69 27 37 1007.9 1007.8 1.4
05/05:14am 11.8 1.1 10.4 91 0.7 WSW 57 85 31 46 1007.3 1007.2 1.0
05/05:13am 11.9 0.5 10.5 91 0.7 WSW 61 85 33 46 1007.4 1007.3 1.0
05/05:03am 12.9 3.9 10.4 85 1.3 WSW 48 93 26 50 1007.1 1007.0 0.6
05/05:02am 13.6 5.2 10.9 84 1.4 WSW 46 93 25 50 1006.9 1006.8 0.4
05/05:00am 14.9 7.9 11.3 79 1.9 WSW 39 70 21 38 1006.7 1006.6 0.4
05/04:37am 15.5 10.4 10.7 73 2.5 WSW 28 54 15 29 1005.7 1005.6 0.0
05/04:35am 16.0 11.3 10.5 70 2.9 W 26 54 14 29 1005.7 1005.6 0.0
05/04:30am 16.3 12.9 10.6 69 3.0 W 19 32 10 17 1005.5 1005.4 0.0
05/04:00am 12.8 10.5 10.5 86 1.2 WNW 13 17 7 9 1005.0 1004.9 0.0
05/03:30am 12.2 9.5 10.4 89 0.9 NW 15 19 8 10 1004.8 1004.7 0.0
05/03:00am 12.8 10.7 11.2 90 0.8 NW 13 19 7 10 1005.0 1004.9 0.0
05/02:30am 11.7 9.1 10.6 93 0.6 NW 15 19 8 10 1005.7 1005.6 0.0
05/02:00am 11.6 9.6 10.2 91 0.7 NW 11 15 6 8 1005.9 1005.8 0.0
05/01:30am 12.1 9.9 10.7 91 0.7 WNW 13 17 7 9 1006.2 1006.1 0.0
05/01:00am 11.9 10.2 9.8 87 1.1 NNW 9 11 5 6 1006.5 1006.4 0.0
05/12:30am 13.3 11.7 10.1 81 1.7 N 9 11 5 6 1006.7 1006.6 0.0
05/12:00am 13.8 12.4 10.8 82 1.6 NNE 9 11 5 6 1007.0 1006.9 0.0
 
Date/Time
EDT
Temp
°C
App
Temp
°C
Dew
Point
Rel
Hum
%
Delta-T
°C
Wind Press
QNH
hPa
Press
MSL
hPa
Rain
since 9 am
mm
Dir
 
Spd
km/h
Gust
km/h
Spd
kts
Gust
kts
04/11:30pm 13.7 12.7 10.3 80 1.8 NNE 6 7 3 4 1007.6 1007.5 0.0
04/11:00pm 14.7 13.7 10.9 78 2.0 NNE 7 9 4 5 1008.1 1008.0 0.0
04/10:30pm 14.2 13.1 10.0 76 2.2 NNE 6 7 3 4 1008.6 1008.4 0.0
04/10:00pm 15.3 13.8 10.7 74 2.4 NNE 9 11 5 6 1008.8 1008.6 0.0
04/09:30pm 15.5 13.8 11.3 76 2.3 N 11 13 6 7 1009.0 1008.9 0.0
04/09:00pm 15.7 14.4 11.1 74 2.5 NE 9 13 5 7 1009.2 1009.1 0.0
04/08:30pm 15.8 14.2 11.6 76 2.3 NE 11 13 6 7 1009.2 1009.1 0.0
04/08:00pm 16.6 15.0 11.5 72 2.8 ENE 11 13 6 7 1009.1 1009.0 0.0
04/07:30pm 18.0 16.0 11.6 66 3.5 E 13 15 7 8 1009.2 1009.1 0.0
04/07:00pm 18.8 16.1 11.6 63 4.0 E 17 22 9 12 1009.2 1009.1 0.0
04/06:30pm 19.9 16.5 11.4 58 4.7 SE 20 24 11 13 1009.1 1009.0 0.0
04/06:00pm 20.9 17.1 11.3 54 5.3 SE 22 28 12 15 1008.9 1008.7 0.0
04/05:30pm 22.4 19.0 11.2 49 6.2 SE 20 28 11 15 1008.6 1008.4 0.0
04/05:00pm 23.0 19.8 11.1 47 6.6 SSE 19 24 10 13 1008.6 1008.4 0.0
04/04:30pm 24.5 19.5 9.6 39 8.2 S 26 39 14 21 1008.7 1008.5 0.0
04/04:00pm 24.8 20.4 10.3 40 8.1 SSW 24 35 13 19 1009.1 1009.0 0.0
04/03:30pm 24.3 20.7 9.8 40 8.0 SSW 19 35 10 19 1009.4 1009.3 0.0

Other Formats:

Comma delimited format used in spreadsheet applications
http://www.bom.gov.au/fwo/IDV60801/IDV60801.94912.axf

JavaScript Object Notation format (JSON) in row-major order
http://www.bom.gov.au/fwo/IDV60801/IDV60801.94912.json